Time;durP1;ratioP1;P1;durP2;ratioP2;P2;SDS_P1;SDS_P2;PMS_P1;PMS_P2;Temp;Humidity;BMP_temperature;BMP_pressure;BME280_temperature;BME280_humidity;BME280_pressure;Samples;Min_cycle;Max_cycle;Signal;HPM_P1;HPM_P2
2022/11/02 00:00:24;;;;;;;3.80;1.23;;;;;;;;;;5076470;28;20460;-69
2022/11/02 00:02:51;;;;;;;3.80;1.30;;;;;;;;;;5076627;28;21021;-69
2022/11/02 00:05:23;;;;;;;3.93;1.63;;;;;;;;;;5076096;28;20932;-69
2022/11/02 00:07:50;;;;;;;6.70;1.50;;;;;;;;;;5075939;28;20517;-69
2022/11/02 00:10:18;;;;;;;9.33;1.23;;;;;;;;;;5075115;28;20518;-70
2022/11/02 00:12:46;;;;;;;3.73;1.90;;;;;;;;;;5076393;28;20861;-70
2022/11/02 00:15:14;;;;;;;3.67;1.50;;;;;;;;;;5076504;28;20732;-70
2022/11/02 00:17:41;;;;;;;4.20;1.13;;;;;;;;;;5076828;28;20448;-70
2022/11/02 00:20:09;;;;;;;6.10;1.87;;;;;;;;;;5075650;28;20873;-69
2022/11/02 00:22:36;;;;;;;4.90;2.13;;;;;;;;;;5075390;28;20464;-70
2022/11/02 00:25:05;;;;;;;6.20;1.60;;;;;;;;;;5075836;28;20480;-70
2022/11/02 00:27:51;;;;;;;15.40;2.10;;;;;;;;;;5075955;28;20541;-70
2022/11/02 00:30:19;;;;;;;7.93;1.77;;;;;;;;;;5076275;28;20464;-69
2022/11/02 00:32:50;;;;;;;8.73;1.60;;;;;;;;;;5075465;28;20456;-70
2022/11/02 00:35:17;;;;;;;4.00;0.80;;;;;;;;;;5075419;28;20460;-70
2022/11/02 00:37:44;;;;;;;5.67;1.20;;;;;;;;;;5075948;28;20460;-70
2022/11/02 00:40:12;;;;;;;9.47;1.20;;;;;;;;;;5076484;28;20857;-70
2022/11/02 00:45:24;;;;;;;3.17;1.60;;;;;;;;;;5073538;28;20770;-70
2022/11/02 00:47:51;;;;;;;4.57;1.30;;;;;;;;;;5075505;28;20923;-70
2022/11/02 00:50:18;;;;;;;2.90;1.00;;;;;;;;;;5075309;28;20465;-70
2022/11/02 00:52:48;;;;;;;9.90;1.37;;;;;;;;;;5074474;28;20460;-70
2022/11/02 00:55:16;;;;;;;4.37;1.50;;;;;;;;;;5075047;28;20460;-70
2022/11/02 00:57:43;;;;;;;6.13;2.20;;;;;;;;;;5075226;28;20509;-70
2022/11/02 01:00:11;;;;;;;5.93;1.10;;;;;;;;;;5075197;28;20444;-70
2022/11/02 01:02:39;;;;;;;6.30;1.57;;;;;;;;;;5075602;28;20445;-70
2022/11/02 01:05:08;;;;;;;8.50;1.13;;;;;;;;;;5075218;28;20488;-70
2022/11/02 01:07:36;;;;;;;7.53;1.10;;;;;;;;;;5075293;28;20456;-69
2022/11/02 01:10:06;;;;;;;4.53;1.50;;;;;;;;;;5075206;28;20559;-70
2022/11/02 01:12:33;;;;;;;3.03;1.37;;;;;;;;;;5075278;28;20455;-70
2022/11/02 01:15:02;;;;;;;2.60;1.10;;;;;;;;;;5074911;28;20487;-69
2022/11/02 01:17:29;;;;;;;3.20;1.17;;;;;;;;;;5073881;28;20535;-70
2022/11/02 01:19:57;;;;;;;5.03;1.17;;;;;;;;;;5075835;28;20462;-69
2022/11/02 01:22:27;;;;;;;4.60;1.30;;;;;;;;;;5081112;28;20713;-70
2022/11/02 01:24:54;;;;;;;7.37;1.40;;;;;;;;;;5080571;28;20530;-70
2022/11/02 01:27:21;;;;;;;4.03;1.27;;;;;;;;;;5081578;28;20457;-70
2022/11/02 01:29:49;;;;;;;5.20;0.97;;;;;;;;;;5081371;28;20498;-70
2022/11/02 01:32:16;;;;;;;5.63;1.50;;;;;;;;;;5081291;28;20457;-69
2022/11/02 01:34:43;;;;;;;5.43;1.93;;;;;;;;;;5081900;28;20562;-69
2022/11/02 01:37:11;;;;;;;5.47;0.90;;;;;;;;;;5081711;28;20485;-69
2022/11/02 01:39:38;;;;;;;4.00;1.40;;;;;;;;;;5081680;28;20464;-69
2022/11/02 01:42:16;;;;;;;4.30;1.33;;;;;;;;;;5081161;28;20545;-69
2022/11/02 01:44:43;;;;;;;3.37;1.13;;;;;;;;;;5080969;28;20466;-70
2022/11/02 01:47:14;;;;;;;2.93;1.00;;;;;;;;;;5081349;28;20456;-69
2022/11/02 01:49:42;;;;;;;5.53;1.30;;;;;;;;;;5081178;28;20462;-69
2022/11/02 01:52:11;;;;;;;10.20;1.53;;;;;;;;;;5081655;28;20471;-69
2022/11/02 01:54:41;;;;;;;5.10;1.53;;;;;;;;;;5080781;28;20535;-69
2022/11/02 01:57:10;;;;;;;8.90;1.23;;;;;;;;;;5081295;28;20801;-70
2022/11/02 01:59:43;;;;;;;4.70;1.20;;;;;;;;;;5081144;28;20824;-69
2022/11/02 02:02:14;;;;;;;6.40;1.00;;;;;;;;;;5080974;28;20460;-69
2022/11/02 02:04:41;;;;;;;5.80;1.20;;;;;;;;;;5080740;28;20868;-70
2022/11/02 02:07:08;;;;;;;6.00;1.20;;;;;;;;;;5080845;28;20860;-70
2022/11/02 02:09:35;;;;;;;7.60;1.20;;;;;;;;;;5080804;28;20448;-69
2022/11/02 02:12:03;;;;;;;6.67;1.33;;;;;;;;;;5081600;28;20456;-69
2022/11/02 02:14:33;;;;;;;5.27;1.70;;;;;;;;;;5080743;28;20543;-69
2022/11/02 02:17:07;;;;;;;3.20;0.83;;;;;;;;;;5081507;28;20857;-70
2022/11/02 02:19:39;;;;;;;7.33;1.53;;;;;;;;;;5080292;28;20728;-69
2022/11/02 02:22:19;;;;;;;3.60;1.63;;;;;;;;;;5079968;28;20459;-70
2022/11/02 02:24:50;;;;;;;10.10;1.60;;;;;;;;;;5080370;28;20865;-69
2022/11/02 02:27:21;;;;;;;14.80;1.37;;;;;;;;;;5080741;28;20814;-69
2022/11/02 02:29:52;;;;;;;3.13;0.67;;;;;;;;;;5081429;28;20440;-70
2022/11/02 02:32:24;;;;;;;11.57;2.13;;;;;;;;;;5078493;28;20721;-70
2022/11/02 02:34:53;;;;;;;6.03;1.67;;;;;;;;;;5077308;28;20463;-69
2022/11/02 02:37:23;;;;;;;3.50;0.90;;;;;;;;;;5077660;28;20445;-69
2022/11/02 02:39:52;;;;;;;3.23;1.20;;;;;;;;;;5077659;28;20468;-70
2022/11/02 02:42:20;;;;;;;2.67;1.10;;;;;;;;;;5077575;28;20452;-69
2022/11/02 02:44:50;;;;;;;6.37;1.20;;;;;;;;;;5077932;28;20578;-69
2022/11/02 02:47:21;;;;;;;3.83;1.13;;;;;;;;;;5077273;28;20453;-70
2022/11/02 02:49:50;;;;;;;5.83;1.37;;;;;;;;;;5077413;28;20475;-69
2022/11/02 02:52:18;;;;;;;3.70;1.53;;;;;;;;;;5076906;28;21161;-69
2022/11/02 02:54:46;;;;;;;4.33;0.90;;;;;;;;;;5077271;28;20445;-70
2022/11/02 02:57:16;;;;;;;9.37;1.67;;;;;;;;;;5077683;28;20453;-70
2022/11/02 02:59:44;;;;;;;2.40;1.03;;;;;;;;;;5077487;28;20856;-70
2022/11/02 03:02:14;;;;;;;10.13;1.70;;;;;;;;;;5076809;28;20453;-70
2022/11/02 03:04:44;;;;;;;9.07;1.33;;;;;;;;;;5077568;28;20448;-69
2022/11/02 03:07:14;;;;;;;8.53;1.90;;;;;;;;;;5076343;28;20486;-69
2022/11/02 03:09:43;;;;;;;11.13;1.37;;;;;;;;;;5077835;28;20448;-69
2022/11/02 03:12:17;;;;;;;6.60;1.40;;;;;;;;;;5078148;28;20472;-69
2022/11/02 03:14:50;;;;;;;4.27;1.50;;;;;;;;;;5077977;28;20448;-69
2022/11/02 03:17:19;;;;;;;8.27;1.70;;;;;;;;;;5078087;28;20734;-69
2022/11/02 03:19:55;;;;;;;6.43;1.47;;;;;;;;;;5077628;28;20745;-69
2022/11/02 03:22:30;;;;;;;7.17;1.00;;;;;;;;;;5077412;28;20713;-69
2022/11/02 03:25:01;;;;;;;3.67;1.17;;;;;;;;;;5078168;28;20495;-69
2022/11/02 03:27:35;;;;;;;4.60;1.50;;;;;;;;;;5077382;28;20547;-69
2022/11/02 03:30:06;;;;;;;4.87;1.47;;;;;;;;;;5077472;28;20676;-69
2022/11/02 03:32:36;;;;;;;6.80;1.30;;;;;;;;;;5078249;28;20531;-68
2022/11/02 03:35:06;;;;;;;7.87;1.70;;;;;;;;;;5078166;28;20540;-69
2022/11/02 03:37:35;;;;;;;6.03;1.43;;;;;;;;;;5077733;28;20497;-69
2022/11/02 03:40:06;;;;;;;6.17;1.60;;;;;;;;;;5077982;28;20448;-69
2022/11/02 03:42:34;;;;;;;3.83;1.00;;;;;;;;;;5076411;28;20456;-69
2022/11/02 03:45:04;;;;;;;5.40;1.60;;;;;;;;;;5077123;28;20513;-69
2022/11/02 03:47:32;;;;;;;3.63;1.80;;;;;;;;;;5077872;28;20463;-69
2022/11/02 03:50:01;;;;;;;5.37;1.40;;;;;;;;;;5076985;28;20529;-69
2022/11/02 03:52:30;;;;;;;3.03;1.07;;;;;;;;;;5076303;28;20651;-69
2022/11/02 03:55:02;;;;;;;3.60;1.00;;;;;;;;;;5075691;28;20453;-69
2022/11/02 03:57:34;;;;;;;6.70;1.33;;;;;;;;;;5076036;28;20456;-69
2022/11/02 04:00:17;;;;;;;4.60;1.30;;;;;;;;;;5075975;28;20744;-69
2022/11/02 04:02:46;;;;;;;7.50;1.70;;;;;;;;;;5076050;28;20742;-69
2022/11/02 04:05:13;;;;;;;5.20;1.17;;;;;;;;;;5075138;28;20546;-69
2022/11/02 04:10:28;;;;;;;10.00;1.90;;;;;;;;;;5075470;28;20439;-69
2022/11/02 04:15:40;;;;;;;8.50;3.07;;;;;;;;;;5075271;28;20431;-69
2022/11/02 04:20:52;;;;;;;7.33;1.33;;;;;;;;;;5074818;28;20744;-69
2022/11/02 04:26:07;;;;;;;3.23;1.00;;;;;;;;;;5049562;28;20476;-69
2022/11/02 04:28:34;;;;;;;7.13;1.67;;;;;;;;;;5076268;28;20457;-69
2022/11/02 04:31:02;;;;;;;3.50;1.10;;;;;;;;;;5076050;28;20488;-69
2022/11/02 04:33:31;;;;;;;4.73;1.50;;;;;;;;;;5075266;28;20459;-69
2022/11/02 04:36:00;;;;;;;4.83;1.50;;;;;;;;;;5075541;28;20531;-69
2022/11/02 04:38:39;;;;;;;6.30;1.20;;;;;;;;;;5075364;28;20464;-69
2022/11/02 04:43:51;;;;;;;3.30;1.27;;;;;;;;;;5074700;28;20447;-70
2022/11/02 04:46:18;;;;;;;9.30;2.90;;;;;;;;;;5075807;28;20488;-70
2022/11/02 04:48:46;;;;;;;6.30;1.50;;;;;;;;;;5075752;28;20510;-70
2022/11/02 04:51:13;;;;;;;4.57;1.20;;;;;;;;;;5075529;28;20749;-70
2022/11/02 04:53:44;;;;;;;4.30;1.20;;;;;;;;;;5074145;28;20449;-70
2022/11/02 04:56:11;;;;;;;6.47;1.40;;;;;;;;;;5075363;28;20452;-69
2022/11/02 04:58:38;;;;;;;5.80;1.83;;;;;;;;;;5073737;28;20529;-70
2022/11/02 05:01:09;;;;;;;10.70;4.00;;;;;;;;;;5074116;28;20448;-70
2022/11/02 05:03:36;;;;;;;7.23;1.13;;;;;;;;;;5075018;28;20507;-70
2022/11/02 05:06:06;;;;;;;9.50;2.03;;;;;;;;;;5075093;28;20479;-70
2022/11/02 05:08:36;;;;;;;5.20;1.70;;;;;;;;;;5074432;28;20466;-70
2022/11/02 05:11:05;;;;;;;3.83;1.00;;;;;;;;;;5075014;28;20517;-70
2022/11/02 05:13:32;;;;;;;5.33;1.10;;;;;;;;;;5074840;28;20464;-70
2022/11/02 05:16:00;;;;;;;8.73;1.90;;;;;;;;;;5074750;28;20535;-70
2022/11/02 05:18:28;;;;;;;5.63;1.20;;;;;;;;;;5074617;28;20748;-70
2022/11/02 05:20:56;;;;;;;7.13;1.60;;;;;;;;;;5074402;28;20461;-70
2022/11/02 05:23:23;;;;;;;8.20;2.40;;;;;;;;;;5074903;28;20460;-69
2022/11/02 05:25:56;;;;;;;6.40;1.40;;;;;;;;;;5074592;28;20523;-69
2022/11/02 05:28:24;;;;;;;3.37;1.43;;;;;;;;;;5073902;28;20444;-69
2022/11/02 05:30:51;;;;;;;11.40;1.80;;;;;;;;;;5074242;28;20444;-69
2022/11/02 05:33:19;;;;;;;8.20;1.90;;;;;;;;;;5074849;28;20457;-68
2022/11/02 05:35:46;;;;;;;13.27;1.70;;;;;;;;;;5074063;28;20961;-69
2022/11/02 05:38:13;;;;;;;4.70;1.97;;;;;;;;;;5074403;28;20460;-69
2022/11/02 05:40:41;;;;;;;10.70;2.63;;;;;;;;;;5073738;28;20445;-69
2022/11/02 05:43:09;;;;;;;6.10;1.50;;;;;;;;;;5073730;28;20468;-69
2022/11/02 05:45:37;;;;;;;8.13;2.03;;;;;;;;;;5073643;28;20738;-69
2022/11/02 05:48:07;;;;;;;7.83;1.53;;;;;;;;;;5072606;28;20464;-70
2022/11/02 05:50:36;;;;;;;3.73;0.90;;;;;;;;;;5073239;28;20448;-70
2022/11/02 05:53:03;;;;;;;4.67;1.50;;;;;;;;;;5072723;28;20557;-70
2022/11/02 05:55:30;;;;;;;3.57;1.60;;;;;;;;;;5067361;28;20864;-70
2022/11/02 05:57:57;;;;;;;9.73;2.77;;;;;;;;;;5071879;28;20633;-69
2022/11/02 06:00:24;;;;;;;5.70;1.00;;;;;;;;;;5073116;28;21050;-70
2022/11/02 06:02:56;;;;;;;7.23;1.47;;;;;;;;;;5071946;28;20464;-70
2022/11/02 06:05:23;;;;;;;6.50;1.20;;;;;;;;;;5070972;28;20578;-69
2022/11/02 06:07:57;;;;;;;5.83;1.43;;;;;;;;;;5073809;28;20468;-69
2022/11/02 06:10:27;;;;;;;5.40;1.60;;;;;;;;;;5074262;28;20453;-71
2022/11/02 06:12:57;;;;;;;5.50;1.80;;;;;;;;;;5074336;28;20990;-70
2022/11/02 06:15:24;;;;;;;3.00;1.63;;;;;;;;;;5064739;28;20469;-71
2022/11/02 06:17:51;;;;;;;6.00;1.33;;;;;;;;;;5062106;28;20551;-70
2022/11/02 06:20:20;;;;;;;7.53;1.47;;;;;;;;;;5076721;28;20908;-71
2022/11/02 06:22:47;;;;;;;7.67;1.20;;;;;;;;;;5073914;28;20638;-71
2022/11/02 06:25:18;;;;;;;4.53;1.20;;;;;;;;;;5072401;28;20487;-73
2022/11/02 06:27:50;;;;;;;7.37;1.80;;;;;;;;;;5072553;28;20464;-69
2022/11/02 06:30:17;;;;;;;5.20;1.43;;;;;;;;;;5071081;28;20785;-72
2022/11/02 06:32:46;;;;;;;12.00;1.57;;;;;;;;;;5062414;28;20464;-70
2022/11/02 06:35:13;;;;;;;6.80;1.60;;;;;;;;;;5074958;28;20441;-70
2022/11/02 06:37:41;;;;;;;8.90;3.53;;;;;;;;;;5057612;28;20469;-71
2022/11/02 06:40:10;;;;;;;5.63;2.43;;;;;;;;;;5063452;28;20575;-72
2022/11/02 06:42:37;;;;;;;7.20;1.50;;;;;;;;;;5069100;28;20465;-73
2022/11/02 06:45:04;;;;;;;7.00;1.50;;;;;;;;;;5073452;28;20471;-73
2022/11/02 06:47:33;;;;;;;14.50;1.50;;;;;;;;;;5068456;28;20626;-74
2022/11/02 06:50:01;;;;;;;6.30;1.40;;;;;;;;;;5058463;28;20503;-72
2022/11/02 06:52:29;;;;;;;5.27;1.97;;;;;;;;;;5056971;28;20526;-71
2022/11/02 06:54:57;;;;;;;10.73;1.30;;;;;;;;;;5059142;28;20524;-71
2022/11/02 06:57:24;;;;;;;5.20;1.50;;;;;;;;;;5074669;28;20496;-72
2022/11/02 06:59:52;;;;;;;6.53;1.90;;;;;;;;;;5079532;28;20456;-71
2022/11/02 07:02:20;;;;;;;9.20;2.00;;;;;;;;;;5078216;28;20456;-71
2022/11/02 07:04:49;;;;;;;4.43;1.20;;;;;;;;;;5071063;28;20543;-71
2022/11/02 07:07:20;;;;;;;4.50;1.40;;;;;;;;;;5070834;28;20547;-72
2022/11/02 07:09:47;;;;;;;6.67;1.57;;;;;;;;;;5077154;28;20467;-71
2022/11/02 07:12:15;;;;;;;9.10;1.50;;;;;;;;;;5073403;28;20559;-69
2022/11/02 07:14:42;;;;;;;4.93;1.13;;;;;;;;;;5073923;28;20546;-71
2022/11/02 07:17:10;;;;;;;4.80;1.30;;;;;;;;;;5076458;28;20545;-71
2022/11/02 07:19:38;;;;;;;4.27;1.90;;;;;;;;;;5067752;28;20729;-72
2022/11/02 07:22:06;;;;;;;5.70;1.80;;;;;;;;;;5068261;28;20479;-70
2022/11/02 07:24:33;;;;;;;8.43;1.97;;;;;;;;;;5064878;28;20556;-71
2022/11/02 07:27:01;;;;;;;4.60;1.40;;;;;;;;;;5074034;28;20485;-71
2022/11/02 07:29:29;;;;;;;6.33;1.50;;;;;;;;;;5059510;28;20877;-70
2022/11/02 07:31:56;;;;;;;4.67;1.73;;;;;;;;;;5076821;28;20461;-70
2022/11/02 07:34:26;;;;;;;4.30;1.30;;;;;;;;;;5077260;28;20440;-70
2022/11/02 07:36:55;;;;;;;9.80;1.40;;;;;;;;;;5079565;28;20491;-70
2022/11/02 07:39:23;;;;;;;6.43;2.03;;;;;;;;;;5071367;28;20898;-71
2022/11/02 07:41:50;;;;;;;8.00;3.53;;;;;;;;;;5074044;28;20469;-71
2022/11/02 07:44:18;;;;;;;6.30;1.03;;;;;;;;;;5071612;28;20460;-71
2022/11/02 07:46:50;;;;;;;5.73;1.83;;;;;;;;;;5073879;28;20910;-70
2022/11/02 07:49:17;;;;;;;5.63;1.67;;;;;;;;;;5058482;28;20461;-70
2022/11/02 07:51:45;;;;;;;8.07;1.70;;;;;;;;;;5064539;28;20462;-69
2022/11/02 07:54:12;;;;;;;8.50;2.47;;;;;;;;;;5072354;28;20465;-71
2022/11/02 07:56:41;;;;;;;3.90;1.50;;;;;;;;;;5069557;28;20638;-72
2022/11/02 07:59:15;;;;;;;6.27;1.40;;;;;;;;;;5061011;28;20485;-72
2022/11/02 08:01:43;;;;;;;5.37;1.43;;;;;;;;;;5073117;28;20465;-71
2022/11/02 08:04:18;;;;;;;5.63;1.27;;;;;;;;;;5058896;28;21008;-70
2022/11/02 08:06:48;;;;;;;6.67;1.43;;;;;;;;;;5061948;28;20584;-71
2022/11/02 08:09:15;;;;;;;4.33;1.33;;;;;;;;;;5070000;28;20548;-70
2022/11/02 08:11:44;;;;;;;7.70;2.17;;;;;;;;;;5070477;28;20476;-69
2022/11/02 08:14:14;;;;;;;6.30;1.37;;;;;;;;;;5055290;28;20885;-71
2022/11/02 08:16:43;;;;;;;5.90;1.50;;;;;;;;;;5058602;28;20505;-73
2022/11/02 08:19:18;;;;;;;5.57;1.17;;;;;;;;;;5069845;28;20474;-72
2022/11/02 08:21:45;;;;;;;3.77;1.30;;;;;;;;;;5066374;28;20514;-69
2022/11/02 08:24:13;;;;;;;3.93;1.53;;;;;;;;;;5072682;28;20453;-71
2022/11/02 08:26:40;;;;;;;8.50;1.60;;;;;;;;;;5071395;28;20489;-70
2022/11/02 08:29:08;;;;;;;8.80;1.90;;;;;;;;;;5073304;28;20465;-69
2022/11/02 08:31:37;;;;;;;2.90;1.20;;;;;;;;;;5069743;28;20478;-70
2022/11/02 08:37:19;;;;;;;7.20;1.70;;;;;;;;;;5054389;28;20485;-71
2022/11/02 08:39:47;;;;;;;3.63;1.40;;;;;;;;;;5067696;28;20573;-70
2022/11/02 08:42:17;;;;;;;3.97;1.37;;;;;;;;;;5072547;28;20469;-69
2022/11/02 08:44:45;;;;;;;9.17;1.53;;;;;;;;;;5069723;28;20457;-70
2022/11/02 08:47:17;;;;;;;6.10;1.53;;;;;;;;;;5070591;28;20770;-71
2022/11/02 08:49:45;;;;;;;12.47;1.70;;;;;;;;;;5068444;28;20592;-71
2022/11/02 08:52:16;;;;;;;5.27;1.80;;;;;;;;;;5072011;28;21033;-71
2022/11/02 08:55:10;;;;;;;5.47;1.63;;;;;;;;;;5070778;28;20460;-71
2022/11/02 08:57:48;;;;;;;9.00;1.27;;;;;;;;;;5072206;28;20477;-73
2022/11/02 09:03:33;;;;;;;5.83;2.13;;;;;;;;;;5046793;28;20495;-71
2022/11/02 09:06:20;;;;;;;5.77;1.73;;;;;;;;;;5060109;28;20488;-71
2022/11/02 09:09:06;;;;;;;4.73;1.80;;;;;;;;;;5070443;28;20461;-72
2022/11/02 09:11:35;;;;;;;9.47;1.90;;;;;;;;;;5056450;28;20949;-69
2022/11/02 09:14:06;;;;;;;10.90;2.83;;;;;;;;;;5034106;28;20466;-70
2022/11/02 09:16:34;;;;;;;4.47;2.00;;;;;;;;;;5050210;28;20562;-70
2022/11/02 09:19:01;;;;;;;6.77;1.50;;;;;;;;;;5050239;28;20465;-72
2022/11/02 09:21:35;;;;;;;6.23;1.60;;;;;;;;;;5046312;28;20539;-73
2022/11/02 09:24:05;;;;;;;4.63;1.00;;;;;;;;;;5040657;28;20469;-70
2022/11/02 09:26:38;;;;;;;9.67;2.03;;;;;;;;;;5043198;28;20542;-71
2022/11/02 09:29:10;;;;;;;7.43;1.87;;;;;;;;;;5046196;28;20465;-71
2022/11/02 09:31:38;;;;;;;6.43;1.80;;;;;;;;;;5053063;28;20840;-70
2022/11/02 09:34:23;;;;;;;;;;;;;;;;;;;;;
2022/11/02 09:37:20;;;;;;;3.53;1.60;;;;;;;;;;5050344;28;20477;-69
2022/11/02 09:39:52;;;;;;;2.23;1.20;;;;;;;;;;5050640;28;20544;-70
2022/11/02 09:42:40;;;;;;;5.53;3.37;;;;;;;;;;5052397;28;20457;-70
2022/11/02 09:45:29;;;;;;;3.03;1.43;;;;;;;;;;5050781;28;20808;-71
2022/11/02 09:48:02;;;;;;;3.80;1.50;;;;;;;;;;5057058;28;20920;-71
2022/11/02 09:50:32;;;;;;;8.77;1.50;;;;;;;;;;5056899;28;20473;-71
2022/11/02 09:53:05;;;;;;;8.07;1.13;;;;;;;;;;5048904;28;20727;-71
2022/11/02 09:55:36;;;;;;;4.80;1.27;;;;;;;;;;5037538;28;20777;-71
2022/11/02 09:58:08;;;;;;;3.80;1.40;;;;;;;;;;5045995;28;20489;-70
2022/11/02 10:00:37;;;;;;;4.60;1.93;;;;;;;;;;5054648;28;20599;-72
2022/11/02 10:03:07;;;;;;;7.00;1.43;;;;;;;;;;5038366;28;20528;-70
2022/11/02 10:05:48;;;;;;;6.63;2.20;;;;;;;;;;5040309;28;20482;-72
2022/11/02 10:08:29;;;;;;;9.47;1.57;;;;;;;;;;5035783;28;20505;-71
2022/11/02 10:11:15;;;;;;;3.97;1.50;;;;;;;;;;5043131;28;20496;-70
2022/11/02 10:13:49;;;;;;;4.00;1.30;;;;;;;;;;5043969;28;20503;-70
2022/11/02 10:16:20;;;;;;;5.50;1.30;;;;;;;;;;5047560;28;20457;-73
2022/11/02 10:18:49;;;;;;;4.80;1.57;;;;;;;;;;5047479;28;20469;-73
2022/11/02 10:21:22;;;;;;;5.77;1.47;;;;;;;;;;5053020;28;20468;-71
2022/11/02 10:23:51;;;;;;;5.83;1.30;;;;;;;;;;5046047;28;20461;-69
2022/11/02 10:26:23;;;;;;;9.03;1.23;;;;;;;;;;5040771;28;20573;-71
2022/11/02 10:29:08;;;;;;;5.57;2.20;;;;;;;;;;5046510;28;20469;-71
2022/11/02 10:31:43;;;;;;;9.37;2.53;;;;;;;;;;5044671;28;20472;-69
2022/11/02 10:34:20;;;;;;;3.70;1.90;;;;;;;;;;5051574;28;20559;-69
2022/11/02 10:36:53;;;;;;;3.57;1.27;;;;;;;;;;5049104;28;20471;-69
2022/11/02 10:39:26;;;;;;;7.43;1.70;;;;;;;;;;5051805;28;20462;-69
2022/11/02 10:42:05;;;;;;;3.27;1.20;;;;;;;;;;5052327;28;20709;-68
2022/11/02 10:44:38;;;;;;;7.40;2.03;;;;;;;;;;5048930;28;20462;-71
2022/11/02 10:47:09;;;;;;;10.33;1.93;;;;;;;;;;5041605;28;20542;-71
2022/11/02 10:50:01;;;;;;;9.90;2.10;;;;;;;;;;5048228;28;20509;-70
2022/11/02 10:52:30;;;;;;;3.10;1.00;;;;;;;;;;5048826;28;20495;-73
2022/11/02 10:54:59;;;;;;;4.57;1.13;;;;;;;;;;5048494;28;20454;-72
2022/11/02 10:57:34;;;;;;;6.17;1.73;;;;;;;;;;5053320;28;20631;-72
2022/11/02 11:00:21;;;;;;;4.00;1.30;;;;;;;;;;5049537;28;20468;-71
2022/11/02 11:03:07;;;;;;;5.43;2.03;;;;;;;;;;5045425;28;20477;-72
2022/11/02 11:05:35;;;;;;;7.90;1.30;;;;;;;;;;5052465;28;20488;-70
2022/11/02 11:08:25;;;;;;;5.13;1.53;;;;;;;;;;5046438;28;20752;-71
2022/11/02 11:10:53;;;;;;;10.93;2.17;;;;;;;;;;5038667;28;20466;-70
2022/11/02 11:13:26;;;;;;;6.40;2.20;;;;;;;;;;5052173;28;20518;-71
2022/11/02 11:16:05;;;;;;;4.40;1.30;;;;;;;;;;5047456;28;20469;-70
2022/11/02 11:18:41;;;;;;;7.47;2.20;;;;;;;;;;5052226;28;20473;-71
2022/11/02 11:21:11;;;;;;;2.90;1.03;;;;;;;;;;5053862;28;20464;-69
2022/11/02 11:23:41;;;;;;;9.20;1.80;;;;;;;;;;5051530;28;20477;-69
2022/11/02 11:26:28;;;;;;;4.33;1.03;;;;;;;;;;5050593;28;20477;-70
2022/11/02 11:29:16;;;;;;;10.23;1.97;;;;;;;;;;5049227;28;20455;-69
2022/11/02 11:32:12;;;;;;;;;;;;;;;;;;;;;
2022/11/02 11:34:53;;;;;;;6.23;1.47;;;;;;;;;;5035561;28;20473;-72
2022/11/02 11:37:36;;;;;;;3.73;1.20;;;;;;;;;;5053139;28;20464;-71
2022/11/02 11:40:17;;;;;;;3.00;1.17;;;;;;;;;;5051630;28;20546;-71
2022/11/02 11:43:01;;;;;;;5.80;1.63;;;;;;;;;;5041919;28;20511;-71
2022/11/02 11:48:34;;;;;;;2.50;0.80;;;;;;;;;;5037156;28;20445;-73
2022/11/02 11:54:21;;;;;;;3.00;0.80;;;;;;;;;;5031706;28;20882;-71
2022/11/02 11:56:53;;;;;;;5.40;1.37;;;;;;;;;;5038708;28;20458;-71
2022/11/02 11:59:21;;;;;;;7.07;2.40;;;;;;;;;;5032476;28;20457;-70
2022/11/02 12:01:49;;;;;;;6.17;1.43;;;;;;;;;;5051735;28;20964;-72
2022/11/02 12:04:29;;;;;;;8.67;1.87;;;;;;;;;;5049896;28;20540;-73
2022/11/02 12:07:22;;;;;;;5.03;1.67;;;;;;;;;;5048723;28;20534;-73
2022/11/02 12:10:12;;;;;;;6.00;1.80;;;;;;;;;;5048771;28;20530;-72
2022/11/02 12:13:00;;;;;;;1.93;0.90;;;;;;;;;;5046604;28;20898;-73
2022/11/02 12:15:58;;;;;;;4.13;1.73;;;;;;;;;;5048558;28;20480;-72
2022/11/02 12:18:51;;;;;;;5.53;1.67;;;;;;;;;;5052210;28;20469;-72
2022/11/02 12:27:35;;;;;;;2.50;1.30;;;;;;;;;;5048631;28;20652;-71
2022/11/02 12:30:21;;;;;;;4.17;1.43;;;;;;;;;;5050672;28;20453;-70
2022/11/02 12:33:09;;;;;;;4.53;1.23;;;;;;;;;;5048549;28;20457;-70
2022/11/02 12:36:04;;;;;;;3.73;0.77;;;;;;;;;;5026696;28;20480;-68
2022/11/02 12:38:48;;;;;;;15.90;1.80;;;;;;;;;;5036326;28;20465;-70
2022/11/02 12:41:25;;;;;;;3.60;1.00;;;;;;;;;;5038851;28;20480;-70
2022/11/02 12:44:14;;;;;;;3.97;1.00;;;;;;;;;;5050034;28;20619;-69
2022/11/02 12:46:44;;;;;;;2.90;1.20;;;;;;;;;;5047564;28;20489;-69
2022/11/02 12:49:24;;;;;;;5.33;1.70;;;;;;;;;;5052193;28;20461;-72
2022/11/02 12:55:15;;;;;;;7.00;1.40;;;;;;;;;;5045678;28;20543;-72
2022/11/02 12:57:51;;;;;;;2.10;0.90;;;;;;;;;;5037996;28;20777;-71
2022/11/02 13:00:23;;;;;;;1.53;0.77;;;;;;;;;;5031419;28;20470;-69
2022/11/02 13:02:54;;;;;;;4.03;0.90;;;;;;;;;;5049311;28;20508;-70
2022/11/02 13:05:23;;;;;;;3.47;0.97;;;;;;;;;;5049019;28;20827;-69
2022/11/02 13:07:54;;;;;;;3.57;1.23;;;;;;;;;;5047399;28;20489;-70
2022/11/02 13:10:27;;;;;;;2.63;0.70;;;;;;;;;;5036294;28;20477;-69
2022/11/02 13:13:18;;;;;;;1.50;0.57;;;;;;;;;;5038906;28;20748;-71
2022/11/02 13:15:58;;;;;;;7.20;0.80;;;;;;;;;;5044341;28;20469;-69
2022/11/02 13:18:37;;;;;;;4.27;1.33;;;;;;;;;;5047602;28;20465;-68
2022/11/02 13:21:17;;;;;;;2.80;0.77;;;;;;;;;;5050057;28;20461;-70
2022/11/02 13:24:29;;;;;;;5.13;0.73;;;;;;;;;;5052104;28;20473;-70
2022/11/02 13:33:19;;;;;;;3.00;1.03;;;;;;;;;;5041079;28;20462;-69
2022/11/02 13:39:07;;;;;;;4.43;1.10;;;;;;;;;;5044133;28;20530;-70
2022/11/02 13:42:03;;;;;;;4.30;1.20;;;;;;;;;;5053954;28;20544;-71
2022/11/02 13:44:57;;;;;;;6.23;1.30;;;;;;;;;;5026096;28;20892;-70
2022/11/02 13:47:54;;;;;;;2.40;0.93;;;;;;;;;;5050650;28;20489;-70
2022/11/02 13:53:32;;;;;;;2.20;1.10;;;;;;;;;;5048386;28;20457;-71
2022/11/02 13:56:07;;;;;;;5.00;1.40;;;;;;;;;;5050389;28;20487;-71
2022/11/02 13:58:42;;;;;;;2.17;0.83;;;;;;;;;;5049996;28;20471;-71
2022/11/02 14:01:20;;;;;;;2.43;1.00;;;;;;;;;;5047573;28;20468;-71
2022/11/02 14:04:13;;;;;;;6.10;0.80;;;;;;;;;;5045040;28;20469;-70
2022/11/02 14:07:06;;;;;;;2.37;0.90;;;;;;;;;;5047675;28;20785;-71
2022/11/02 14:09:41;;;;;;;17.17;1.53;;;;;;;;;;5050598;28;20465;-71
2022/11/02 14:12:18;;;;;;;2.37;1.00;;;;;;;;;;5042585;28;20445;-71
2022/11/02 14:14:47;;;;;;;3.90;1.27;;;;;;;;;;5039127;28;20477;-72
2022/11/02 14:17:18;;;;;;;5.90;1.33;;;;;;;;;;5047792;28;20486;-71
2022/11/02 14:20:03;;;;;;;6.50;1.33;;;;;;;;;;5049133;28;20862;-71
2022/11/02 14:22:44;;;;;;;6.47;1.90;;;;;;;;;;5049339;28;20500;-69
2022/11/02 14:25:33;;;;;;;6.50;1.53;;;;;;;;;;5039997;28;20559;-70
2022/11/02 14:28:36;;;;;;;6.50;1.03;;;;;;;;;;5048253;28;20501;-71
2022/11/02 14:31:26;;;;;;;2.50;1.23;;;;;;;;;;5039896;28;20914;-71
2022/11/02 14:34:28;;;;;;;11.17;1.63;;;;;;;;;;5050405;28;20588;-70
2022/11/02 14:37:16;;;;;;;6.27;2.50;;;;;;;;;;5044155;28;20520;-70
2022/11/02 14:39:48;;;;;;;3.00;0.87;;;;;;;;;;5039023;28;20807;-69
2022/11/02 14:42:37;;;;;;;5.00;0.97;;;;;;;;;;5051193;28;20461;-70
2022/11/02 14:45:14;;;;;;;11.03;1.67;;;;;;;;;;5052510;28;20578;-70
2022/11/02 14:47:42;;;;;;;5.30;0.90;;;;;;;;;;5053732;28;20538;-69
2022/11/02 14:50:17;;;;;;;2.57;1.23;;;;;;;;;;5051375;28;20469;-71
2022/11/02 14:52:55;;;;;;;5.07;1.13;;;;;;;;;;5054829;28;20467;-70
2022/11/02 14:55:25;;;;;;;6.10;0.87;;;;;;;;;;5054937;28;20543;-69
2022/11/02 14:57:58;;;;;;;4.17;1.20;;;;;;;;;;5047440;28;20921;-69
2022/11/02 15:00:28;;;;;;;4.50;1.23;;;;;;;;;;5053731;28;20916;-69
2022/11/02 15:02:56;;;;;;;4.13;1.10;;;;;;;;;;5051679;28;20453;-69
2022/11/02 15:05:35;;;;;;;5.97;2.03;;;;;;;;;;5052665;28;20457;-70
2022/11/02 15:08:04;;;;;;;12.00;4.80;;;;;;;;;;5054405;28;20492;-70
2022/11/02 15:10:49;;;;;;;4.87;1.20;;;;;;;;;;5052825;28;20580;-69
2022/11/02 15:13:33;;;;;;;2.67;1.30;;;;;;;;;;5047644;28;20607;-69
2022/11/02 15:16:18;;;;;;;3.80;1.20;;;;;;;;;;5043445;28;20453;-69
2022/11/02 15:18:47;;;;;;;2.17;0.80;;;;;;;;;;5033038;28;20465;-69
2022/11/02 15:21:28;;;;;;;3.93;1.17;;;;;;;;;;5050287;28;20530;-69
2022/11/02 15:24:02;;;;;;;5.47;0.90;;;;;;;;;;5039053;28;20458;-70
2022/11/02 15:26:34;;;;;;;5.60;1.67;;;;;;;;;;5038236;28;20491;-70
2022/11/02 15:29:07;;;;;;;3.43;1.10;;;;;;;;;;5050729;28;20461;-70
2022/11/02 15:31:36;;;;;;;4.17;1.23;;;;;;;;;;5053280;28;20456;-70
2022/11/02 15:34:23;;;;;;;5.43;1.20;;;;;;;;;;5052756;28;20469;-70
2022/11/02 15:36:56;;;;;;;5.40;1.20;;;;;;;;;;5053887;28;20488;-71
2022/11/02 15:39:33;;;;;;;9.53;2.67;;;;;;;;;;5045816;28;20623;-70
2022/11/02 15:42:04;;;;;;;4.60;1.60;;;;;;;;;;5044384;28;20582;-70
2022/11/02 15:44:53;;;;;;;8.87;3.27;;;;;;;;;;5044113;28;20787;-70
2022/11/02 15:47:29;;;;;;;6.40;1.63;;;;;;;;;;5053530;28;20485;-70
2022/11/02 15:50:14;;;;;;;10.63;2.43;;;;;;;;;;5055265;28;20445;-70
2022/11/02 15:53:11;;;;;;;7.83;1.70;;;;;;;;;;5047992;28;20611;-70
2022/11/02 15:55:46;;;;;;;4.47;1.37;;;;;;;;;;5047837;28;20517;-70
2022/11/02 15:58:24;;;;;;;5.20;1.97;;;;;;;;;;5050798;28;20473;-70
2022/11/02 16:01:17;;;;;;;5.37;1.43;;;;;;;;;;5035739;28;20442;-69
2022/11/02 16:03:47;;;;;;;3.00;1.03;;;;;;;;;;5033250;28;20469;-69
2022/11/02 16:06:15;;;;;;;2.57;0.87;;;;;;;;;;5035829;28;20512;-70
2022/11/02 16:08:44;;;;;;;5.17;1.40;;;;;;;;;;5049138;28;20719;-70